FAB1331 SBYS-SBYS

Flight info

Callsign FAB1331
Flight time N/A
Altitude 14500
Route DCT
Aircraft TUCA/L-SDFG/S

Departure

Time 2026-04-23 02:40
Airport Campo Fontenelle (SBYS)

Arrival

Time N/A
Airport Campo Fontenelle (SBYS)
Time Latitude Longitude Altitude Speed Heading
2026-04-23 02:01 -21.98082 -47.33961 1973 ft 0 kts 264°
2026-04-23 02:22 -21.98083 -47.33958 1973 ft 0 kts 264°
2026-04-23 02:22 -21.98082 -47.33961 1973 ft 0 kts 264°
2026-04-23 02:22 -21.98082 -47.33962 1973 ft 0 kts 264°
2026-04-23 02:24 -21.98081 -47.33966 1973 ft 2 kts 277°
2026-04-23 02:25 -21.98054 -47.33977 1973 ft 8 kts
2026-04-23 02:25 -21.97991 -47.33977 1973 ft 8 kts 358°
2026-04-23 02:25 -21.97965 -47.33996 1973 ft 5 kts 270°
2026-04-23 02:25 -21.97990 -47.34006 1973 ft 8 kts 180°
2026-04-23 02:26 -21.98063 -47.34006 1973 ft 10 kts 180°
2026-04-23 02:26 -21.98131 -47.34006 1973 ft 10 kts 180°
2026-04-23 02:26 -21.98197 -47.34005 1973 ft 10 kts 180°
2026-04-23 02:26 -21.98263 -47.34005 1973 ft 9 kts 180°
2026-04-23 02:27 -21.98330 -47.34005 1973 ft 11 kts 180°
2026-04-23 02:27 -21.98435 -47.34005 1973 ft 17 kts 180°
2026-04-23 02:27 -21.98556 -47.34004 1973 ft 19 kts 179°
2026-04-23 02:27 -21.98695 -47.34003 1973 ft 21 kts 180°
2026-04-23 02:28 -21.98834 -47.34002 1973 ft 20 kts 179°
2026-04-23 02:28 -21.98977 -47.34002 1973 ft 18 kts 180°
2026-04-23 02:28 -21.99106 -47.34001 1973 ft 19 kts 179°
2026-04-23 02:28 -21.99228 -47.34001 1973 ft 18 kts 179°
2026-04-23 02:29 -21.99336 -47.34005 1973 ft 10 kts 219°
2026-04-23 02:29 -21.99347 -47.34036 1973 ft 0 kts 271°
2026-04-23 02:29 -21.99347 -47.34037 1973 ft 0 kts 271°
2026-04-23 02:32 -21.99347 -47.34038 1973 ft 0 kts 270°
2026-04-23 02:34 -21.99347 -47.34039 1973 ft 0 kts 270°
2026-04-23 02:34 -21.99347 -47.34065 1973 ft 11 kts 270°
2026-04-23 02:35 -21.99308 -47.34126 1973 ft 8 kts 354°
2026-04-23 02:35 -21.99290 -47.34127 1973 ft 0 kts 359°
2026-04-23 02:35 -21.99269 -47.34116 1973 ft 1 kts 360°
2026-04-23 02:36 -21.99268 -47.34116 1973 ft 0 kts 360°
2026-04-23 02:37 -21.99267 -47.34116 1973 ft 0 kts 359°
2026-04-23 02:38 -21.99266 -47.34116 1973 ft 0 kts 359°
2026-04-23 02:39 -21.99239 -47.34117 1973 ft 26 kts 357°
2026-04-23 02:39 -21.98732 -47.34119 1973 ft 104 kts
2026-04-23 02:40 -21.97813 -47.34113 2130 ft 157 kts
2026-04-23 02:40 -21.96664 -47.34110 2439 ft 167 kts 360°
2026-04-23 02:40 -21.95462 -47.34131 2619 ft 174 kts 357°
2026-04-23 02:40 -21.94267 -47.34302 2922 ft 174 kts 347°
2026-04-23 02:41 -21.93154 -47.34765 3279 ft 171 kts 331°
2026-04-23 02:41 -21.92238 -47.35548 3596 ft 172 kts 313°
2026-04-23 02:41 -21.91510 -47.36582 3947 ft 170 kts 306°
2026-04-23 02:41 -21.90810 -47.37614 4262 ft 173 kts 306°
2026-04-23 02:42 -21.90106 -47.38685 4500 ft 178 kts 305°
2026-04-23 02:42 -21.89392 -47.39806 4683 ft 183 kts 304°
2026-04-23 02:42 -21.88685 -47.40933 4935 ft 180 kts 304°
2026-04-23 02:42 -21.88000 -47.42039 5172 ft 180 kts 303°
2026-04-23 02:43 -21.87318 -47.43163 5442 ft 178 kts 303°
2026-04-23 02:43 -21.86674 -47.44268 5796 ft 168 kts 302°
2026-04-23 02:43 -21.86091 -47.45309 6251 ft 157 kts 300°
2026-04-23 02:43 -21.85544 -47.46298 6669 ft 150 kts 297°
2026-04-23 02:44 -21.85149 -47.47017 6965 ft 148 kts 296°
2026-04-23 02:44 -21.84660 -47.47996 7317 ft 145 kts 292°
2026-04-23 02:44 -21.84300 -47.48964 7828 ft 136 kts 287°
2026-04-23 02:44 -21.84004 -47.49944 8202 ft 138 kts 284°
2026-04-23 02:45 -21.83841 -47.50951 8596 ft 139 kts 273°
2026-04-23 02:45 -21.83947 -47.51989 9034 ft 145 kts 252°
2026-04-23 02:45 -21.84400 -47.53006 9266 ft 150 kts 243°
2026-04-23 02:45 -21.85036 -47.53855 9651 ft 144 kts 227°
2026-04-23 02:46 -21.85915 -47.54457 9850 ft 157 kts 211°
2026-04-23 02:46 -21.86935 -47.54948 9967 ft 166 kts 211°
2026-04-23 02:46 -21.88000 -47.55475 10079 ft 169 kts 211°
2026-04-23 02:46 -21.89063 -47.55997 10301 ft 166 kts 211°
2026-04-23 02:47 -21.90097 -47.56537 10506 ft 165 kts 213°
2026-04-23 02:47 -21.91124 -47.57098 10704 ft 164 kts 213°
2026-04-23 02:47 -21.92121 -47.57648 10945 ft 162 kts 213°
2026-04-23 02:47 -21.93131 -47.58139 11191 ft 162 kts 208°
2026-04-23 02:48 -21.94198 -47.58576 11443 ft 161 kts 207°
2026-04-23 02:48 -21.95249 -47.58985 11691 ft 160 kts 206°
2026-04-23 02:48 -21.96293 -47.59383 11938 ft 159 kts 206°
2026-04-23 02:48 -21.97354 -47.59724 12187 ft 159 kts 202°
2026-04-23 02:49 -21.98441 -47.59957 12435 ft 160 kts 195°
2026-04-23 02:49 -21.99549 -47.60079 12684 ft 160 kts 192°
2026-04-23 02:49 -22.00655 -47.60165 12932 ft 159 kts 192°
2026-04-23 02:49 -22.01752 -47.60241 13179 ft 158 kts 191°
2026-04-23 02:50 -22.02843 -47.60312 13426 ft 156 kts 191°
2026-04-23 02:50 -22.03925 -47.60380 13674 ft 155 kts 191°
2026-04-23 02:50 -22.05007 -47.60447 13862 ft 158 kts 191°
2026-04-23 02:50 -22.06124 -47.60522 13975 ft 165 kts 191°
2026-04-23 02:51 -22.07279 -47.60608 14008 ft 173 kts 191°
2026-04-23 02:51 -22.08497 -47.60705 14007 ft 177 kts 191°
2026-04-23 02:51 -22.09736 -47.60809 14003 ft 180 kts 191°
2026-04-23 02:51 -22.10986 -47.60915 14032 ft 179 kts 191°
2026-04-23 02:52 -22.12246 -47.61018 13970 ft 184 kts 192°
2026-04-23 02:52 -22.13539 -47.61139 13933 ft 185 kts 192°
2026-04-23 02:52 -22.14809 -47.61253 13983 ft 182 kts 192°
2026-04-23 02:52 -22.16068 -47.61375 13993 ft 181 kts 195°
2026-04-23 02:53 -22.16979 -47.62048 14100 ft 157 kts 252°
2026-04-23 02:53 -22.16705 -47.63173 13825 ft 178 kts 307°
2026-04-23 02:53 -22.15547 -47.63855 13551 ft 197 kts 336°
2026-04-23 02:53 -22.14304 -47.64243 13964 ft 173 kts 338°
2026-04-23 02:54 -22.13158 -47.64590 14117 ft 175 kts 336°
2026-04-23 02:54 -22.11983 -47.64978 14190 ft 177 kts 335°
2026-04-23 02:54 -22.10816 -47.65451 14168 ft 181 kts 331°
2026-04-23 02:54 -22.09639 -47.65961 14124 ft 187 kts 332°
2026-04-23 02:55 -22.08415 -47.66486 13967 ft 195 kts 332°
2026-04-23 02:55 -22.07151 -47.67030 13957 ft 193 kts 332°
2026-04-23 02:55 -22.05963 -47.67643 13936 ft 188 kts 319°
2026-04-23 02:55 -22.05288 -47.68752 13931 ft 178 kts 280°
2026-04-23 02:56 -22.05676 -47.70050 13384 ft 205 kts 229°
2026-04-23 02:56 -22.07017 -47.70617 12991 ft 227 kts 184°
2026-04-23 02:56 -22.08521 -47.70103 12874 ft 228 kts 155°
2026-04-23 02:56 -22.09821 -47.69268 13039 ft 214 kts 154°
2026-04-23 02:57 -22.11089 -47.68430 13012 ft 212 kts 153°
2026-04-23 02:57 -22.12322 -47.67592 12999 ft 207 kts 153°
2026-04-23 02:57 -22.13530 -47.66777 12997 ft 202 kts 156°
2026-04-23 02:57 -22.14759 -47.66074 12999 ft 198 kts 159°
2026-04-23 02:58 -22.15993 -47.65420 12999 ft 197 kts 160°
2026-04-23 02:58 -22.17225 -47.64780 12999 ft 196 kts 160°
2026-04-23 02:58 -22.18438 -47.64153 12999 ft 195 kts 160°
2026-04-23 02:58 -22.19665 -47.63521 13000 ft 195 kts 160°
2026-04-23 02:59 -22.20890 -47.62889 13000 ft 195 kts 160°
2026-04-23 02:59 -22.22115 -47.62257 13000 ft 195 kts 160°
2026-04-23 02:59 -22.23245 -47.61449 13042 ft 199 kts 136°
2026-04-23 02:59 -22.23778 -47.60052 12938 ft 210 kts 97°
2026-04-23 03:00 -22.23735 -47.58433 12769 ft 216 kts 85°
2026-04-23 03:00 -22.23715 -47.56854 12882 ft 208 kts 97°
2026-04-23 03:00 -22.24149 -47.55384 12847 ft 204 kts 123°
2026-04-23 03:00 -22.25146 -47.54337 12683 ft 200 kts 158°
2026-04-23 03:01 -22.26467 -47.54053 12565 ft 189 kts 190°
2026-04-23 03:01 -22.27760 -47.54219 12548 ft 188 kts 187°
2026-04-23 03:01 -22.29035 -47.54027 12708 ft 184 kts 171°
2026-04-23 03:01 -22.30201 -47.53551 12913 ft 178 kts 163°
2026-04-23 03:02 -22.31322 -47.52988 13154 ft 172 kts 161°
2026-04-23 03:02 -22.32400 -47.52499 13393 ft 164 kts 171°
2026-04-23 03:02 -22.33471 -47.52344 13633 ft 151 kts 191°
2026-04-23 03:02 -22.34449 -47.52604 13843 ft 142 kts 212°
2026-04-23 03:03 -22.35217 -47.53236 13967 ft 140 kts 235°
2026-04-23 03:03 -22.35708 -47.54154 14013 ft 145 kts 249°
2026-04-23 03:03 -22.35973 -47.55218 14005 ft 150 kts 269°
2026-04-23 03:03 -22.35709 -47.56318 14002 ft 155 kts 295°
2026-04-23 03:04 -22.34931 -47.57142 14015 ft 163 kts 322°
2026-04-23 03:04 -22.33868 -47.57644 14013 ft 171 kts 335°
2026-04-23 03:04 -22.32705 -47.57973 14006 ft 174 kts 340°
2026-04-23 03:04 -22.31512 -47.58252 14002 ft 176 kts 341°
2026-04-23 03:05 -22.30314 -47.58523 14001 ft 176 kts 340°
2026-04-23 03:05 -22.29133 -47.58814 14000 ft 176 kts 340°
2026-04-23 03:05 -22.27939 -47.59119 13987 ft 177 kts 339°
2026-04-23 03:05 -22.26730 -47.59441 13914 ft 180 kts 339°
2026-04-23 03:06 -22.25460 -47.59805 13612 ft 201 kts 338°